Time;durP1;ratioP1;P1;durP2;ratioP2;P2;SDS_P1;SDS_P2;PMS_P1;PMS_P2;Temp;Humidity;BMP_temperature;BMP_pressure;BME280_temperature;BME280_humidity;BME280_pressure;Samples;Min_cycle;Max_cycle;Signal;HPM_P1;HPM_P2
2021/08/22 00:00:36;;;;;;;9.53;5.83;;;13.20;99.90;;;;;;4419671;28;658686;-69
2021/08/22 00:03:24;;;;;;;7.33;5.43;;;13.20;99.90;;;;;;4413362;28;656930;-69
2021/08/22 00:06:12;;;;;;;9.27;5.40;;;13.20;99.90;;;;;;4435990;28;656544;-69
2021/08/22 00:08:59;;;;;;;12.73;5.80;;;13.10;99.90;;;;;;4412949;28;657198;-69
2021/08/22 00:11:47;;;;;;;8.63;6.00;;;13.10;99.90;;;;;;4423991;28;657938;-69
2021/08/22 00:14:35;;;;;;;11.27;6.60;;;13.20;99.90;;;;;;4431477;28;657458;-69
2021/08/22 00:17:24;;;;;;;14.07;6.43;;;13.10;99.90;;;;;;4412088;28;657491;-69
2021/08/22 00:20:12;;;;;;;10.45;6.70;;;13.10;99.90;;;;;;4428783;28;657610;-69
2021/08/22 00:22:59;;;;;;;10.95;6.63;;;13.10;99.90;;;;;;4407249;28;658073;-69
2021/08/22 00:25:47;;;;;;;11.67;7.07;;;13.10;99.90;;;;;;4422329;28;657698;-69
2021/08/22 00:28:35;;;;;;;13.57;7.07;;;13.10;99.90;;;;;;4426123;28;657757;-69
2021/08/22 00:31:22;;;;;;;12.80;6.70;;;13.10;99.90;;;;;;4418323;28;657551;-69
2021/08/22 00:34:11;;;;;;;12.60;6.93;;;13.10;99.90;;;;;;4434371;28;658299;-69
2021/08/22 00:36:59;;;;;;;12.20;7.30;;;13.10;99.90;;;;;;4385317;28;658483;-69
2021/08/22 00:39:46;;;;;;;14.73;8.23;;;13.10;99.90;;;;;;4429191;28;657533;-69
2021/08/22 00:42:34;;;;;;;13.33;7.77;;;13.10;99.90;;;;;;4404395;28;658649;-69
2021/08/22 00:45:21;;;;;;;16.73;7.77;;;13.10;99.90;;;;;;4409178;28;657686;-69
2021/08/22 00:48:09;;;;;;;16.70;8.40;;;13.10;99.90;;;;;;4383866;28;658084;-69
2021/08/22 00:51:00;;;;;;;14.40;8.00;;;13.00;99.90;;;;;;4427582;28;657474;-69
2021/08/22 00:53:48;;;;;;;15.13;8.30;;;13.00;99.90;;;;;;4409214;28;657601;-69
2021/08/22 00:56:36;;;;;;;18.47;8.30;;;13.10;99.90;;;;;;4446575;28;658096;-69
2021/08/22 00:59:23;;;;;;;16.87;8.47;;;13.00;99.90;;;;;;4412322;28;658343;-69
2021/08/22 01:02:11;;;;;;;14.13;8.40;;;13.00;99.90;;;;;;4431313;28;658035;-69
2021/08/22 01:05:03;;;;;;;13.65;8.48;;;13.00;99.90;;;;;;4415013;28;657520;-69
2021/08/22 01:07:56;;;;;;;17.20;9.07;;;13.00;99.90;;;;;;4384415;28;658326;-69
2021/08/22 01:10:44;;;;;;;15.80;8.97;;;13.00;99.90;;;;;;4390023;28;657942;-69
2021/08/22 01:13:34;;;;;;;17.87;9.23;;;13.00;99.90;;;;;;4432889;28;657344;-69
2021/08/22 01:16:21;;;;;;;19.57;9.70;;;13.00;99.90;;;;;;4410629;28;657577;-69
2021/08/22 01:19:14;;;;;;;16.57;8.97;;;13.00;99.90;;;;;;4408775;28;658379;-69
2021/08/22 01:22:03;;;;;;;18.67;8.80;;;13.00;99.90;;;;;;4409966;28;658156;-69
2021/08/22 01:24:52;;;;;;;13.90;8.57;;;13.00;99.90;;;;;;4409428;28;657478;-69
2021/08/22 01:27:40;;;;;;;14.93;8.67;;;13.00;99.90;;;;;;4407858;28;657871;-69
2021/08/22 01:30:28;;;;;;;13.10;8.80;;;13.00;99.90;;;;;;4413201;28;658158;-69
2021/08/22 01:33:18;;;;;;;14.83;8.83;;;13.00;99.90;;;;;;4427713;28;657812;-69
2021/08/22 01:36:05;;;;;;;14.90;9.13;;;13.00;99.90;;;;;;4401198;28;658054;-69
2021/08/22 01:38:54;;;;;;;15.30;8.47;;;13.00;99.90;;;;;;4393044;28;657777;-69
2021/08/22 01:41:41;;;;;;;15.60;8.87;;;13.00;99.90;;;;;;4420300;28;657381;-69
2021/08/22 01:44:29;;;;;;;12.30;8.03;;;12.90;99.90;;;;;;4400327;28;658313;-69
2021/08/22 01:47:17;;;;;;;12.43;8.13;;;13.00;99.90;;;;;;4411830;28;658351;-69
2021/08/22 01:50:07;;;;;;;16.87;8.47;;;13.00;99.90;;;;;;4389790;28;658902;-70
2021/08/22 01:52:56;;;;;;;16.70;8.37;;;13.00;99.90;;;;;;4401220;28;659238;-69
2021/08/22 01:55:44;;;;;;;13.07;7.57;;;12.90;99.90;;;;;;4411285;28;657502;-69
2021/08/22 01:58:31;;;;;;;16.50;8.17;;;12.90;99.90;;;;;;4432240;28;657324;-69
2021/08/22 02:01:19;;;;;;;19.80;8.50;;;12.90;99.90;;;;;;4400893;28;658695;-69
2021/08/22 02:04:11;;;;;;;13.93;7.90;;;12.90;99.90;;;;;;4428670;28;657568;-69
2021/08/22 02:07:02;;;;;;;14.30;8.63;;;12.90;99.90;;;;;;4414750;28;657194;-69
2021/08/22 02:09:51;;;;;;;12.73;8.40;;;12.90;99.90;;;;;;4421451;28;658466;-69
2021/08/22 02:12:41;;;;;;;13.03;8.80;;;12.90;99.90;;;;;;4409016;28;657794;-69
2021/08/22 02:15:30;;;;;;;13.97;8.00;;;12.90;99.90;;;;;;4416640;28;657885;-69
2021/08/22 02:18:20;;;;;;;14.83;7.97;;;12.90;99.90;;;;;;4409022;28;657885;-69
2021/08/22 02:21:08;;;;;;;11.33;7.67;;;12.80;99.90;;;;;;4411891;28;657512;-69
2021/08/22 02:23:59;;;;;;;12.63;8.17;;;12.80;99.90;;;;;;4435906;28;657167;-69
2021/08/22 02:26:51;;;;;;;14.32;8.25;;;12.80;99.90;;;;;;4408074;28;657907;-69
2021/08/22 02:29:47;;;;;;;11.83;7.57;;;12.80;99.90;;;;;;4412838;28;657333;-69
2021/08/22 02:32:36;;;;;;;14.17;8.07;;;12.80;99.90;;;;;;4401828;28;657852;-70
2021/08/22 02:35:25;;;;;;;14.53;7.63;;;12.80;99.90;;;;;;4404004;28;657718;-69
2021/08/22 02:38:13;;;;;;;12.30;8.40;;;12.80;99.90;;;;;;4408245;28;657828;-69
2021/08/22 02:41:04;;;;;;;11.83;7.70;;;12.80;99.90;;;;;;4431626;28;657882;-70
2021/08/22 02:43:53;;;;;;;10.33;7.70;;;12.80;99.90;;;;;;4408051;28;657482;-69
2021/08/22 02:46:40;;;;;;;12.33;8.17;;;12.80;99.90;;;;;;4386814;28;657609;-70
2021/08/22 02:49:28;;;;;;;14.33;8.00;;;12.80;99.90;;;;;;4408909;28;657917;-70
2021/08/22 02:52:15;;;;;;;12.80;7.57;;;12.80;99.90;;;;;;4428600;28;658420;-70
2021/08/22 02:55:03;;;;;;;13.70;7.40;;;12.80;99.90;;;;;;4412974;28;657386;-70
2021/08/22 02:57:52;;;;;;;12.83;7.63;;;12.90;99.90;;;;;;4424701;28;657526;-70
2021/08/22 03:00:39;;;;;;;12.60;7.67;;;12.80;99.90;;;;;;4412126;28;659510;-70
2021/08/22 03:03:27;;;;;;;13.10;7.67;;;12.80;99.90;;;;;;4421886;28;658038;-70
2021/08/22 03:06:15;;;;;;;13.43;8.27;;;12.80;99.90;;;;;;4430655;28;657667;-70
2021/08/22 03:09:03;;;;;;;13.20;7.47;;;12.80;99.90;;;;;;4412570;28;658217;-70
2021/08/22 03:11:51;;;;;;;13.13;7.97;;;12.80;99.90;;;;;;4429732;28;658539;-69
2021/08/22 03:14:39;;;;;;;14.00;8.43;;;12.80;99.90;;;;;;4406124;28;657610;-70
2021/08/22 03:17:27;;;;;;;12.33;8.70;;;12.80;99.90;;;;;;4418186;28;657784;-70
2021/08/22 03:20:16;;;;;;;12.57;8.20;;;12.80;99.90;;;;;;4426697;28;657320;-70
2021/08/22 03:23:03;;;;;;;13.83;8.60;;;12.80;99.90;;;;;;4411106;28;657423;-70
2021/08/22 03:25:51;;;;;;;12.47;8.40;;;12.80;99.90;;;;;;4425142;28;659294;-70
2021/08/22 03:28:38;;;;;;;13.47;8.03;;;12.80;99.90;;;;;;4407640;28;657827;-70
2021/08/22 03:31:27;;;;;;;14.90;8.60;;;12.70;99.90;;;;;;4424397;28;657967;-69
2021/08/22 03:34:15;;;;;;;16.93;9.47;;;12.80;99.90;;;;;;4407492;28;657923;-69
2021/08/22 03:37:03;;;;;;;15.40;10.00;;;12.80;99.90;;;;;;4414958;28;657779;-69
2021/08/22 03:39:52;;;;;;;14.57;8.90;;;12.80;99.90;;;;;;4418751;28;659194;-69
2021/08/22 03:42:40;;;;;;;14.60;9.70;;;12.70;99.90;;;;;;4430928;28;657156;-69
2021/08/22 03:45:28;;;;;;;18.17;9.83;;;12.70;99.90;;;;;;4398451;28;657538;-69
2021/08/22 03:48:16;;;;;;;18.27;10.87;;;12.80;99.90;;;;;;4424587;28;659647;-69
2021/08/22 03:51:04;;;;;;;14.70;9.40;;;12.70;99.90;;;;;;4383139;28;659430;-69
2021/08/22 03:53:52;;;;;;;19.90;10.43;;;12.70;99.90;;;;;;4430213;28;658013;-69
2021/08/22 03:56:39;;;;;;;21.30;10.67;;;12.70;99.90;;;;;;4393500;28;659783;-69
2021/08/22 03:59:27;;;;;;;17.63;10.03;;;12.70;99.90;;;;;;4412399;28;659029;-69
2021/08/22 04:02:15;;;;;;;17.33;11.30;;;12.70;99.90;;;;;;4429348;28;659055;-69
2021/08/22 04:05:05;;;;;;;20.10;11.97;;;12.80;99.90;;;;;;4408757;28;659407;-69
2021/08/22 04:07:55;;;;;;;20.77;12.73;;;12.80;99.90;;;;;;4402908;28;659296;-69
2021/08/22 04:10:43;;;;;;;22.80;10.97;;;12.80;99.90;;;;;;4409281;28;659081;-70
2021/08/22 04:13:30;;;;;;;17.20;11.47;;;12.80;99.90;;;;;;4428810;28;659541;-69
2021/08/22 04:16:18;;;;;;;18.17;12.17;;;12.90;99.90;;;;;;4409849;28;658936;-70
2021/08/22 04:19:05;;;;;;;19.50;11.97;;;12.90;99.90;;;;;;4429758;28;659232;-70
2021/08/22 04:21:54;;;;;;;20.50;12.40;;;12.90;99.90;;;;;;4410015;28;659293;-70
2021/08/22 04:24:42;;;;;;;20.17;12.33;;;13.00;99.90;;;;;;4421314;28;659040;-70
2021/08/22 04:27:29;;;;;;;17.93;11.50;;;13.10;99.90;;;;;;4405693;28;659133;-70
2021/08/22 04:30:17;;;;;;;21.50;12.87;;;13.20;99.90;;;;;;4428290;28;658602;-70
2021/08/22 04:33:04;;;;;;;20.80;13.03;;;13.20;99.90;;;;;;4401123;28;659391;-69
2021/08/22 04:35:52;;;;;;;26.30;12.33;;;13.30;99.90;;;;;;4425657;28;658786;-70
2021/08/22 04:38:41;;;;;;;21.73;13.17;;;13.30;99.90;;;;;;4428879;28;660029;-69
2021/08/22 04:41:29;;;;;;;21.77;14.27;;;13.50;99.90;;;;;;4410454;28;659222;-70
2021/08/22 04:44:16;;;;;;;20.83;14.20;;;13.50;99.90;;;;;;4417133;28;658570;-70
2021/08/22 04:47:05;;;;;;;20.30;13.47;;;13.70;99.90;;;;;;4401954;28;659853;-70
2021/08/22 04:49:53;;;;;;;16.97;12.20;;;13.80;99.90;;;;;;4406642;28;658782;-70
2021/08/22 04:52:40;;;;;;;24.87;13.70;;;13.90;99.90;;;;;;4427077;28;659918;-70
2021/08/22 04:55:29;;;;;;;20.50;13.43;;;14.00;99.90;;;;;;4413728;28;658718;-70
2021/08/22 04:58:17;;;;;;;18.03;12.93;;;14.10;99.90;;;;;;4437631;28;658817;-70
2021/08/22 05:01:04;;;;;;;19.10;12.43;;;14.20;99.90;;;;;;4416192;28;659502;-70
2021/08/22 05:03:52;;;;;;;20.77;11.93;;;14.30;99.90;;;;;;4434407;28;658890;-70
2021/08/22 05:06:40;;;;;;;17.37;12.03;;;14.50;99.90;;;;;;4427110;28;659408;-70
2021/08/22 05:09:27;;;;;;;18.63;12.27;;;14.60;99.90;;;;;;4413901;28;658704;-70
2021/08/22 05:12:16;;;;;;;15.97;11.63;;;14.70;99.90;;;;;;4428930;28;660128;-70
2021/08/22 05:15:07;;;;;;;18.10;12.50;;;14.80;99.90;;;;;;4405096;28;659943;-70
2021/08/22 05:17:55;;;;;;;19.07;12.97;;;15.00;99.90;;;;;;4403453;28;658994;-70
2021/08/22 05:20:42;;;;;;;19.83;12.97;;;15.10;99.90;;;;;;4415212;28;658547;-70
2021/08/22 05:23:30;;;;;;;17.20;12.00;;;15.30;99.90;;;;;;4421231;28;658589;-70
2021/08/22 05:26:18;;;;;;;16.85;11.63;;;15.50;99.90;;;;;;4396807;28;659049;-70
2021/08/22 05:29:06;;;;;;;16.80;11.60;;;15.60;99.90;;;;;;4430225;28;660173;-70
2021/08/22 05:31:54;;;;;;;16.50;11.63;;;15.80;99.90;;;;;;4399664;28;659972;-70
2021/08/22 05:34:41;;;;;;;18.07;12.30;;;16.00;99.90;;;;;;4427237;28;658777;-70
2021/08/22 05:37:29;;;;;;;14.23;11.20;;;16.20;99.90;;;;;;4405279;28;660372;-70
2021/08/22 05:40:17;;;;;;;16.43;11.03;;;16.30;99.90;;;;;;4418166;28;658478;-70
2021/08/22 05:43:04;;;;;;;20.47;12.70;;;16.50;99.90;;;;;;4399653;28;659136;-70
2021/08/22 05:45:54;;;;;;;14.03;10.97;;;16.60;99.90;;;;;;4411877;28;658670;-70
2021/08/22 05:48:41;;;;;;;17.70;11.17;;;16.80;99.90;;;;;;4416719;28;658424;-70
2021/08/22 05:51:29;;;;;;;16.77;11.27;;;16.90;99.90;;;;;;4407934;28;660171;-70
2021/08/22 05:54:16;;;;;;;19.53;11.03;;;17.10;99.90;;;;;;4428546;28;659993;-70
2021/08/22 05:57:04;;;;;;;15.30;10.30;;;17.20;99.90;;;;;;4407866;28;660321;-70
2021/08/22 05:59:52;;;;;;;13.77;9.97;;;17.40;99.90;;;;;;4421090;28;658669;-70
2021/08/22 06:02:41;;;;;;;13.40;10.07;;;17.50;99.90;;;;;;4431638;28;657897;-70
2021/08/22 06:05:29;;;;;;;15.37;10.23;;;17.60;99.90;;;;;;4413132;28;660069;-70
2021/08/22 06:08:16;;;;;;;15.93;9.63;;;17.80;99.90;;;;;;4429791;28;659199;-70
2021/08/22 06:11:04;;;;;;;19.73;10.67;;;17.90;99.90;;;;;;4409430;28;658351;-70
2021/08/22 06:13:52;;;;;;;14.70;9.93;;;18.00;99.90;;;;;;4430709;28;658357;-70
2021/08/22 06:16:39;;;;;;;12.60;8.93;;;18.20;99.90;;;;;;4412894;28;658653;-70
2021/08/22 06:19:29;;;;;;;13.70;9.23;;;18.30;99.90;;;;;;4421594;28;657640;-70
2021/08/22 06:22:16;;;;;;;11.73;8.30;;;18.40;99.90;;;;;;4432196;28;657485;-70
2021/08/22 06:25:05;;;;;;;12.73;8.30;;;18.60;99.90;;;;;;4409310;28;659273;-70
2021/08/22 06:27:52;;;;;;;13.37;8.87;;;18.70;99.90;;;;;;4421072;28;657585;-70
2021/08/22 06:30:40;;;;;;;12.30;8.63;;;18.90;99.90;;;;;;4434122;28;658070;-70
2021/08/22 06:33:27;;;;;;;11.30;8.37;;;18.90;99.90;;;;;;4419460;28;657423;-70
2021/08/22 06:36:17;;;;;;;12.10;8.33;;;19.10;99.90;;;;;;4425751;28;658330;-70
2021/08/22 06:39:04;;;;;;;11.10;8.13;;;19.30;99.90;;;;;;4405687;28;659062;-70
2021/08/22 06:41:52;;;;;;;12.83;9.10;;;19.40;99.90;;;;;;4436015;28;657662;-70
2021/08/22 06:44:40;;;;;;;11.93;8.60;;;19.60;99.90;;;;;;4413151;28;657930;-70
2021/08/22 06:47:27;;;;;;;9.40;7.07;;;19.60;99.90;;;;;;4419014;28;657546;-70
2021/08/22 06:50:15;;;;;;;12.03;8.20;;;19.70;99.90;;;;;;4431943;28;657900;-70
2021/08/22 06:53:04;;;;;;;11.97;7.90;;;19.80;99.90;;;;;;4417880;28;657722;-70
2021/08/22 06:55:51;;;;;;;10.67;8.27;;;19.90;99.90;;;;;;4439971;28;657638;-70
2021/08/22 06:58:39;;;;;;;13.40;8.10;;;20.10;99.90;;;;;;4418148;28;658812;-70
2021/08/22 07:01:27;;;;;;;10.97;8.10;;;20.10;99.90;;;;;;4442825;28;657838;-70
2021/08/22 07:04:14;;;;;;;10.20;7.53;;;20.30;99.90;;;;;;4415950;28;659108;-70
2021/08/22 07:07:02;;;;;;;9.97;7.50;;;20.30;99.90;;;;;;4442964;28;658171;-70
2021/08/22 07:09:51;;;;;;;11.87;7.20;;;20.20;99.90;;;;;;4436721;28;657388;-70
2021/08/22 07:12:39;;;;;;;11.20;7.67;;;20.40;99.90;;;;;;4405629;28;658902;-70
2021/08/22 07:15:27;;;;;;;11.67;7.57;;;20.50;99.90;;;;;;4425580;28;657556;-70
2021/08/22 07:18:14;;;;;;;11.83;7.90;;;20.70;99.90;;;;;;4410643;28;658130;-70
2021/08/22 07:21:04;;;;;;;16.73;7.70;;;20.80;99.90;;;;;;4420531;28;658023;-70
2021/08/22 07:23:52;;;;;;;12.67;7.50;;;20.90;99.90;;;;;;4430481;28;657297;-70
2021/08/22 07:26:41;;;;;;;11.80;7.60;;;21.00;99.90;;;;;;4415548;28;657783;-70
2021/08/22 07:29:29;;;;;;;10.13;7.13;;;21.20;99.90;;;;;;4378685;28;658732;-70
2021/08/22 07:32:16;;;;;;;9.87;7.30;;;21.30;99.90;;;;;;4402895;28;657063;-70
2021/08/22 07:35:04;;;;;;;12.73;7.37;;;21.50;99.90;;;;;;4386787;28;657501;-70
2021/08/22 07:37:55;;;;;;;12.10;6.67;;;21.50;99.90;;;;;;4395687;28;658229;-70
2021/08/22 07:40:43;;;;;;;11.03;7.50;;;21.60;99.90;;;;;;4386039;28;658493;-70
2021/08/22 07:43:33;;;;;;;10.47;7.40;;;21.70;99.90;;;;;;4410611;28;658406;-70
2021/08/22 07:46:20;;;;;;;11.87;7.67;;;21.80;99.90;;;;;;4369850;28;658235;-70
2021/08/22 07:49:08;;;;;;;9.93;7.47;;;21.90;99.90;;;;;;4374278;28;658112;-70
2021/08/22 07:51:55;;;;;;;11.93;8.07;;;22.10;99.90;;;;;;4412080;28;657667;-70
2021/08/22 07:54:43;;;;;;;10.90;7.67;;;22.30;99.90;;;;;;4395480;28;657747;-70
2021/08/22 07:57:32;;;;;;;9.93;7.27;;;22.20;99.90;;;;;;4403375;28;658284;-70
2021/08/22 08:00:21;;;;;;;11.47;7.93;;;22.30;99.90;;;;;;4395959;28;657175;-70
2021/08/22 08:03:08;;;;;;;12.27;7.87;;;22.60;99.90;;;;;;4394639;28;657999;-70
2021/08/22 08:05:56;;;;;;;12.30;8.50;;;22.70;99.90;;;;;;4416788;28;657754;-70
2021/08/22 08:08:44;;;;;;;12.53;8.77;;;23.00;99.90;;;;;;4404331;28;657688;-70
2021/08/22 08:11:31;;;;;;;10.00;8.03;;;23.10;99.90;;;;;;4424363;28;657610;-70
2021/08/22 08:14:19;;;;;;;11.70;7.70;;;23.20;99.90;;;;;;4391147;28;658724;-70
2021/08/22 08:17:10;;;;;;;10.73;7.27;;;23.40;99.90;;;;;;4407728;28;657504;-71
2021/08/22 08:20:01;;;;;;;11.70;8.27;;;23.50;99.90;;;;;;4382681;28;657483;-70
2021/08/22 08:22:49;;;;;;;13.23;8.10;;;23.70;99.90;;;;;;4380468;28;658715;-70
2021/08/22 08:25:37;;;;;;;12.27;8.10;;;23.90;99.90;;;;;;4398037;28;657434;-70
2021/08/22 08:28:25;;;;;;;10.73;7.27;;;24.00;99.90;;;;;;4415328;28;659103;-70
2021/08/22 08:31:13;;;;;;;11.63;8.00;;;24.20;99.90;;;;;;4403759;28;658253;-70
2021/08/22 08:34:02;;;;;;;13.50;8.23;;;24.20;99.90;;;;;;4422802;28;658492;-70
2021/08/22 08:36:50;;;;;;;11.50;7.20;;;24.40;99.90;;;;;;4402517;28;658626;-70
2021/08/22 08:39:37;;;;;;;11.95;7.10;;;24.60;99.90;;;;;;4405464;28;657436;-70
2021/08/22 08:42:25;;;;;;;9.57;7.00;;;24.60;99.90;;;;;;4430565;28;657944;-71
2021/08/22 08:45:18;;;;;;;10.60;7.40;;;25.00;99.90;;;;;;4400265;28;656996;-70
2021/08/22 08:48:06;;;;;;;9.70;6.15;;;25.40;99.90;;;;;;4402919;28;657977;-70
2021/08/22 08:51:06;;;;;;;9.68;6.82;;;25.40;99.90;;;;;;4407172;28;656687;-70
2021/08/22 08:53:53;;;;;;;10.13;6.63;;;25.40;99.90;;;;;;4383440;28;656700;-70
2021/08/22 08:56:41;;;;;;;11.20;6.82;;;25.60;99.90;;;;;;4429027;28;657688;-70
2021/08/22 08:59:29;;;;;;;10.75;6.53;;;25.80;99.90;;;;;;4402699;28;657499;-70
2021/08/22 09:02:16;;;;;;;7.78;5.93;;;25.90;99.90;;;;;;4428759;28;657816;-71
2021/08/22 09:05:21;;;;;;;8.30;6.22;;;25.90;99.90;;;;;;4404601;28;656641;-71
2021/08/22 09:08:50;;;;;;;11.85;6.53;;;25.70;99.90;;;;;;4384310;28;657772;-71
2021/08/22 09:12:20;;;;;;;8.68;6.03;;;25.90;99.90;;;;;;4393487;28;657543;-71
2021/08/22 09:15:56;;;;;;;11.38;6.60;;;25.70;99.90;;;;;;4263206;29;656514;-71
2021/08/22 09:19:34;;;;;;;8.57;6.13;;;26.00;99.90;;;;;;4263998;29;657947;-70
2021/08/22 09:22:58;;;;;;;11.70;6.78;;;26.20;99.90;;;;;;4281944;29;656571;-70
2021/08/22 09:26:40;;;;;;;7.70;6.38;;;26.20;99.90;;;;;;4279319;29;657980;-70
2021/08/22 09:30:09;;;;;;;6.95;5.80;;;26.30;99.90;;;;;;4259341;28;656904;-71
2021/08/22 09:33:34;;;;;;;7.78;5.85;;;26.40;99.90;;;;;;4295368;29;656248;-71
2021/08/22 09:37:14;;;;;;;8.73;5.53;;;26.80;99.90;;;;;;4288189;28;657034;-71
2021/08/22 09:40:38;;;;;;;8.30;5.30;;;27.10;99.90;;;;;;4306046;28;657068;-71
2021/08/22 09:44:17;;;;;;;6.00;4.75;;;27.30;99.90;;;;;;4305158;28;657421;-71
2021/08/22 09:48:10;;;;;;;8.13;5.30;;;27.40;99.90;;;;;;4295978;29;656485;-71
2021/08/22 09:51:35;;;;;;;7.07;4.93;;;27.50;99.90;;;;;;4313223;28;656656;-71
2021/08/22 09:55:05;;;;;;;6.72;4.93;;;27.40;99.90;;;;;;4320464;28;657378;-70
2021/08/22 09:58:26;;;;;;;6.75;4.95;;;27.10;99.90;;;;;;4380160;28;657031;-71
2021/08/22 10:01:55;;;;;;;5.65;4.75;;;27.20;99.90;;;;;;4386544;28;656701;-70
2021/08/22 10:05:01;;;;;;;6.78;4.88;;;27.60;99.90;;;;;;4317262;28;656632;-70
2021/08/22 10:07:56;;;;;;;6.90;4.38;;;28.10;99.90;;;;;;4334762;28;657567;-70
2021/08/22 10:10:45;;;;;;;7.43;4.20;;;28.30;99.90;;;;;;4311689;28;657384;-70
2021/08/22 10:13:33;;;;;;;5.50;4.28;;;28.30;99.90;;;;;;4336882;28;656452;-71
2021/08/22 10:16:22;;;;;;;5.82;4.18;;;28.30;99.20;;;;;;4348548;28;657180;-71
2021/08/22 10:19:10;;;;;;;6.78;4.28;;;28.20;99.00;;;;;;4330177;28;657143;-71
2021/08/22 10:22:11;;;;;;;6.00;3.83;;;28.50;99.30;;;;;;4326332;28;656358;-71
2021/08/22 10:25:01;;;;;;;6.05;4.28;;;28.60;94.30;;;;;;4335818;28;657197;-70
2021/08/22 10:27:58;;;;;;;8.30;4.22;;;28.50;96.90;;;;;;4350423;28;656531;-70
2021/08/22 10:30:46;;;;;;;4.68;3.90;;;28.50;95.20;;;;;;4349134;28;656747;-71
2021/08/22 10:33:33;;;;;;;7.15;3.92;;;28.20;93.60;;;;;;4355273;28;656581;-71
2021/08/22 10:36:30;;;;;;;5.47;3.92;;;27.90;92.90;;;;;;4354023;28;656657;-70
2021/08/22 10:39:31;;;;;;;11.82;4.45;;;27.80;93.90;;;;;;4331652;28;656661;-70
2021/08/22 10:42:19;;;;;;;5.13;3.78;;;28.00;94.90;;;;;;4342191;28;657745;-71
2021/08/22 10:45:07;;;;;;;4.07;3.35;;;28.00;94.60;;;;;;4403855;28;656491;-70
2021/08/22 10:47:55;;;;;;;3.90;3.03;;;28.20;95.10;;;;;;4432052;28;656827;-71
2021/08/22 10:51:09;;;;;;;3.45;3.03;;;28.40;95.40;;;;;;4407565;28;656893;-71
2021/08/22 10:54:16;;;;;;;4.35;3.10;;;28.50;94.40;;;;;;4389580;28;656755;-70
2021/08/22 10:57:06;;;;;;;4.20;3.20;;;28.00;94.00;;;;;;4413757;28;657371;-71
2021/08/22 11:00:17;;;;;;;3.80;2.92;;;27.80;95.10;;;;;;4410763;28;656593;-71
2021/08/22 11:03:05;;;;;;;4.75;3.10;;;27.80;90.50;;;;;;4378699;28;657950;-70
2021/08/22 11:05:53;;;;;;;5.82;3.35;;;27.80;91.20;;;;;;4410539;28;656449;-70
2021/08/22 11:08:41;;;;;;;5.10;3.67;;;27.80;90.90;;;;;;4429710;28;657686;-70
2021/08/22 11:11:28;;;;;;;4.45;3.75;;;28.60;92.00;;;;;;4405039;28;656732;-71
2021/08/22 11:14:18;;;;;;;5.07;3.15;;;28.80;87.30;;;;;;4432710;28;656889;-70
2021/08/22 11:17:05;;;;;;;4.30;3.58;;;28.80;88.30;;;;;;4406125;28;657986;-70
2021/08/22 11:19:53;;;;;;;4.75;3.08;;;28.80;88.30;;;;;;4410974;28;657458;-70
2021/08/22 11:22:41;;;;;;;5.10;2.90;;;28.90;87.00;;;;;;4426845;28;657465;-70
2021/08/22 11:25:29;;;;;;;4.28;3.03;;;28.60;82.90;;;;;;4408588;28;656453;-70
2021/08/22 11:28:17;;;;;;;7.13;2.83;;;28.10;80.80;;;;;;4429082;28;657274;-70
2021/08/22 11:31:12;;;;;;;4.55;2.97;;;28.10;84.80;;;;;;4409664;28;657451;-70
2021/08/22 11:34:11;;;;;;;8.80;2.67;;;28.30;86.80;;;;;;4412780;28;657379;-70
2021/08/22 11:37:16;;;;;;;3.88;3.05;;;29.00;84.80;;;;;;4378321;28;657069;-70
2021/08/22 11:40:07;;;;;;;5.40;2.67;;;29.20;76.70;;;;;;4405687;28;657076;-70
2021/08/22 11:42:55;;;;;;;2.90;2.08;;;29.40;77.20;;;;;;4405184;28;656518;-70
2021/08/22 11:45:43;;;;;;;3.25;1.95;;;29.10;73.00;;;;;;4410381;28;656526;-70
2021/08/22 11:48:32;;;;;;;3.65;2.50;;;29.40;75.50;;;;;;4431283;28;657028;-70
2021/08/22 11:51:20;;;;;;;5.32;2.40;;;29.40;74.00;;;;;;4393191;28;657264;-70
2021/08/22 11:54:07;;;;;;;2.85;2.45;;;29.10;71.20;;;;;;4395213;28;657022;-70
2021/08/22 11:57:19;;;;;;;4.38;2.53;;;28.60;72.30;;;;;;4417584;28;656797;-70
2021/08/22 12:00:08;;;;;;;3.03;2.53;;;28.80;75.70;;;;;;4373989;28;657125;-70
2021/08/22 12:02:56;;;;;;;2.53;2.30;;;28.80;72.70;;;;;;4391529;28;657745;-70
2021/08/22 12:05:55;;;;;;;5.35;2.58;;;28.60;72.90;;;;;;4378646;28;656482;-70
2021/08/22 12:08:48;;;;;;;4.30;2.67;;;28.40;75.00;;;;;;4373032;28;656570;-70
2021/08/22 12:11:35;;;;;;;2.97;2.38;;;28.40;77.10;;;;;;4391887;28;658042;-70
2021/08/22 12:14:23;;;;;;;2.72;2.45;;;29.30;77.30;;;;;;4377546;28;657222;-70
2021/08/22 12:17:11;;;;;;;3.72;2.30;;;29.90;76.50;;;;;;4396902;28;656975;-70
2021/08/22 12:19:59;;;;;;;4.53;2.70;;;29.80;67.50;;;;;;4378119;28;657522;-70
2021/08/22 12:25:41;;;;;;;6.25;2.15;;;29.80;72.60;;;;;;4930073;27;131131;-69
2021/08/22 12:28:29;;;;;;;3.63;2.45;;;30.20;72.00;;;;;;4384208;28;650286;-70
2021/08/22 12:31:17;;;;;;;4.20;2.53;;;30.00;70.70;;;;;;4396886;28;650385;-70
2021/08/22 12:34:07;;;;;;;2.78;2.40;;;30.00;71.80;;;;;;4406725;28;650965;-70
2021/08/22 12:36:54;;;;;;;4.75;2.50;;;29.80;76.10;;;;;;4384409;28;651043;-70
2021/08/22 12:39:42;;;;;;;2.83;2.28;;;29.20;68.10;;;;;;4393098;28;650384;-70
2021/08/22 12:42:31;;;;;;;2.53;2.20;;;28.80;68.10;;;;;;4400529;28;651144;-70
2021/08/22 12:45:19;;;;;;;4.25;2.50;;;28.30;69.80;;;;;;4382617;28;652586;-70
2021/08/22 12:48:07;;;;;;;3.92;2.58;;;28.40;75.10;;;;;;4400819;28;651327;-70
2021/08/22 12:50:54;;;;;;;4.47;2.22;;;28.30;74.00;;;;;;4378388;28;652676;-70
2021/08/22 12:53:42;;;;;;;5.00;2.00;;;28.30;73.30;;;;;;4390369;28;652711;-70
2021/08/22 12:56:30;;;;;;;4.20;2.33;;;28.30;68.30;;;;;;4403529;28;653220;-70
2021/08/22 12:59:19;;;;;;;4.47;2.20;;;28.40;69.10;;;;;;4381107;28;652419;-70
2021/08/22 13:02:07;;;;;;;3.30;2.38;;;28.40;75.10;;;;;;4399677;28;653057;-70
2021/08/22 13:04:54;;;;;;;3.05;2.33;;;28.60;77.60;;;;;;4376558;28;653242;-70
2021/08/22 13:07:43;;;;;;;4.32;2.38;;;28.90;73.80;;;;;;4399700;28;652387;-70
2021/08/22 13:10:31;;;;;;;4.87;2.40;;;29.00;72.40;;;;;;4414162;28;652592;-70
2021/08/22 13:13:19;;;;;;;3.65;2.38;;;29.10;72.80;;;;;;4431312;28;652714;-70
2021/08/22 13:16:08;;;;;;;5.90;2.40;;;29.10;76.30;;;;;;4450850;28;652587;-70
2021/08/22 13:18:55;;;;;;;3.30;2.50;;;29.30;71.80;;;;;;4427701;28;652893;-70
2021/08/22 13:21:43;;;;;;;4.38;2.47;;;29.40;72.90;;;;;;4431870;28;652243;-70
2021/08/22 13:24:30;;;;;;;3.15;2.58;;;29.50;74.50;;;;;;4450365;28;652835;-70
2021/08/22 13:27:18;;;;;;;5.82;2.83;;;29.40;72.00;;;;;;4431694;28;652543;-70
2021/08/22 13:30:06;;;;;;;4.88;2.58;;;29.30;67.50;;;;;;4450080;28;653086;-70
2021/08/22 13:32:55;;;;;;;6.72;2.92;;;29.40;69.30;;;;;;4431580;28;653629;-70
2021/08/22 13:35:43;;;;;;;6.97;2.47;;;29.30;70.30;;;;;;4426137;28;652373;-70
2021/08/22 13:38:30;;;;;;;3.15;2.60;;;29.90;69.70;;;;;;4438771;28;653113;-70
2021/08/22 13:41:18;;;;;;;3.95;2.70;;;30.50;70.90;;;;;;4406033;28;652506;-70
2021/08/22 13:44:05;;;;;;;2.85;2.53;;;30.80;72.70;;;;;;4420924;28;653098;-70
2021/08/22 13:46:53;;;;;;;3.13;2.40;;;30.90;67.50;;;;;;4400321;28;652322;-70
2021/08/22 13:49:42;;;;;;;4.05;2.38;;;31.40;69.70;;;;;;4420864;28;652616;-70
2021/08/22 13:52:30;;;;;;;4.47;3.10;;;31.50;68.60;;;;;;4398248;28;653173;-70
2021/08/22 13:55:17;;;;;;;5.05;2.65;;;31.40;64.60;;;;;;4402013;28;652088;-70
2021/08/22 13:58:05;;;;;;;3.30;2.78;;;31.20;66.60;;;;;;4424937;28;652189;-70
2021/08/22 14:00:53;;;;;;;3.97;2.80;;;30.80;64.70;;;;;;4402051;28;652407;-70
2021/08/22 14:03:40;;;;;;;3.10;2.50;;;31.20;68.40;;;;;;4419320;28;653817;-70
2021/08/22 14:06:29;;;;;;;3.75;2.78;;;31.20;67.40;;;;;;4402042;28;652659;-70
2021/08/22 14:09:17;;;;;;;5.45;2.53;;;30.70;68.10;;;;;;4419183;28;652638;-70
2021/08/22 14:12:06;;;;;;;4.88;3.10;;;30.30;68.60;;;;;;4425015;28;652936;-70
2021/08/22 14:14:54;;;;;;;6.40;2.75;;;29.90;70.10;;;;;;4402120;28;652462;-70
2021/08/22 14:17:41;;;;;;;3.70;2.80;;;29.60;73.30;;;;;;4423613;28;652229;-70
2021/08/22 14:20:31;;;;;;;7.13;2.90;;;29.50;75.50;;;;;;4402110;28;652066;-70
2021/08/22 14:23:20;;;;;;;3.85;2.85;;;29.70;75.20;;;;;;4401385;28;652859;-70
2021/08/22 14:26:07;;;;;;;4.80;2.90;;;29.40;68.60;;;;;;4414172;28;652105;-70
2021/08/22 14:28:55;;;;;;;4.20;2.85;;;29.20;70.70;;;;;;4441819;28;652998;-70
2021/08/22 14:31:42;;;;;;;4.50;2.70;;;29.20;79.30;;;;;;4418987;28;652867;-70